createdAt,value
2018-02-02T00:02:17.114Z,20.17
2018-02-02T00:04:45.132Z,21.20
2018-02-02T00:07:13.166Z,17.50
2018-02-02T00:09:41.063Z,22.43
2018-02-02T00:12:09.103Z,21.30
2018-02-02T00:14:36.993Z,27.93
2018-02-02T00:17:05.005Z,23.03
2018-02-02T00:19:33.771Z,34.27
2018-02-02T00:22:01.665Z,22.33
2018-02-02T00:24:30.290Z,29.40
2018-02-02T00:26:58.348Z,22.10
2018-02-02T00:29:26.242Z,28.93
2018-02-02T00:31:54.121Z,22.67
2018-02-02T00:34:22.133Z,25.50
2018-02-02T00:36:50.842Z,25.17
2018-02-02T00:39:18.745Z,20.10
2018-02-02T00:41:46.771Z,23.13
2018-02-02T00:44:14.686Z,20.80
2018-02-02T00:46:42.594Z,24.13
2018-02-02T00:49:11.397Z,19.17
2018-02-02T00:51:45.101Z,19.07
2018-02-02T00:54:13.040Z,19.73
2018-02-02T00:56:41.026Z,19.97
2018-02-02T00:59:09.646Z,23.60
2018-02-02T01:01:37.672Z,17.63
2018-02-02T01:04:06.295Z,15.43
2018-02-02T01:06:34.250Z,19.03
2018-02-02T01:09:02.346Z,16.33
2018-02-02T01:11:30.259Z,14.77
2018-02-02T01:13:58.150Z,14.80
2018-02-02T01:16:26.196Z,12.40
2018-02-02T01:18:54.216Z,11.90
2018-02-02T01:21:22.116Z,10.63
2018-02-02T01:23:50.130Z,14.63
2018-02-02T01:26:18.813Z,11.77
2018-02-02T01:28:47.449Z,11.80
2018-02-02T01:31:15.465Z,8.83
2018-02-02T01:33:43.333Z,11.97
2018-02-02T01:36:11.364Z,15.63
2018-02-02T01:38:39.410Z,10.40
2018-02-02T01:41:07.300Z,19.33
2018-02-02T01:43:35.208Z,12.53
2018-02-02T01:46:03.238Z,8.90
2018-02-02T01:48:31.199Z,10.20
2018-02-02T01:50:59.149Z,18.67
2018-02-02T01:53:28.042Z,10.80
2018-02-02T01:55:56.730Z,32.50
2018-02-02T01:58:25.373Z,18.37
2018-02-02T02:00:53.401Z,14.80
2018-02-02T02:03:21.298Z,27.73
2018-02-02T02:05:49.174Z,23.57
2018-02-02T02:08:17.190Z,21.43
2018-02-02T02:10:45.832Z,23.77
2018-02-02T02:13:13.733Z,23.23
2018-02-02T02:15:42.489Z,27.60
2018-02-02T02:18:10.429Z,27.80
2018-02-02T02:20:38.317Z,23.57
2018-02-02T02:23:06.351Z,20.53
2018-02-02T02:25:35.055Z,22.23
2018-02-02T02:28:02.946Z,20.47
2018-02-02T02:30:30.976Z,19.77
2018-02-02T02:32:59.614Z,24.10
2018-02-02T02:35:27.512Z,26.93
2018-02-02T02:37:56.304Z,23.33
2018-02-02T02:40:24.935Z,16.40
2018-02-02T02:42:52.818Z,23.13
2018-02-02T02:45:20.860Z,21.00
2018-02-02T02:47:48.792Z,21.70
2018-02-02T02:50:16.696Z,21.70
2018-02-02T02:52:44.736Z,22.47
2018-02-02T02:55:12.768Z,20.93
2018-02-02T03:10:44.980Z,24.67
2018-02-02T03:13:13.614Z,26.77
2018-02-02T03:15:41.498Z,29.17
2018-02-02T03:18:09.560Z,24.90
2018-02-02T03:20:38.385Z,22.20
2018-02-02T03:23:06.312Z,28.93
2018-02-02T03:25:34.336Z,26.00
2018-02-02T03:28:02.969Z,20.43
2018-02-02T03:30:30.863Z,31.43
2018-02-02T03:32:58.900Z,21.83
2018-02-02T03:35:26.808Z,21.77
2018-02-02T03:37:54.725Z,21.87
2018-02-02T03:40:22.771Z,26.83
2018-02-02T03:42:51.426Z,22.10
2018-02-02T03:45:19.333Z,23.30
2018-02-02T03:47:48.095Z,20.33
2018-02-02T03:50:16.137Z,23.83
2018-02-02T03:52:44.023Z,27.97
2018-02-02T03:55:12.080Z,26.63
2018-02-02T03:57:39.962Z,25.97
2018-02-02T04:00:07.909Z,19.83
2018-02-02T04:02:35.956Z,23.70
2018-02-02T04:05:04.752Z,22.10
2018-02-02T04:07:33.616Z,25.13
2018-02-02T04:10:01.689Z,21.50
2018-02-02T04:12:29.713Z,23.33
2018-02-02T04:14:57.633Z,19.03
2018-02-02T04:17:26.461Z,19.77
2018-02-02T04:19:54.434Z,18.77
2018-02-02T04:22:22.350Z,23.53
2018-02-02T04:24:50.388Z,21.23
2018-02-02T04:27:19.286Z,24.40
2018-02-02T04:29:47.218Z,22.43
2018-02-02T04:32:15.993Z,21.40
2018-02-02T04:34:49.641Z,18.63
2018-02-02T04:37:17.728Z,19.50
2018-02-02T04:39:45.651Z,25.40
2018-02-02T04:42:14.274Z,25.27
2018-02-02T04:44:42.158Z,26.57
2018-02-02T04:47:10.106Z,20.43
2018-02-02T04:49:38.024Z,20.90
2018-02-02T04:52:06.044Z,25.37
2018-02-02T04:54:33.929Z,26.30
2018-02-02T04:57:02.063Z,22.00
2018-02-02T04:59:30.074Z,19.50
2018-02-02T05:01:57.966Z,29.93
2018-02-02T05:04:25.985Z,23.83
2018-02-02T05:06:54.088Z,18.33
2018-02-02T05:09:22.044Z,18.83
2018-02-02T05:11:50.066Z,22.90
2018-02-02T05:14:18.860Z,22.07
2018-02-02T05:16:47.498Z,22.77
2018-02-02T05:19:15.533Z,20.73
2018-02-02T05:21:44.300Z,22.50
2018-02-02T05:24:12.196Z,25.33
2018-02-02T05:26:40.149Z,26.77
2018-02-02T05:29:08.922Z,19.23
2018-02-02T05:31:36.847Z,18.90
2018-02-02T05:34:04.734Z,20.60
2018-02-02T05:36:32.801Z,16.47
2018-02-02T05:39:00.708Z,28.57
2018-02-02T05:41:28.616Z,20.40
2018-02-02T05:43:56.656Z,17.93
2018-02-02T05:46:25.361Z,16.87
2018-02-02T05:48:53.996Z,14.77
2018-02-02T05:51:22.013Z,24.00
2018-02-02T05:53:49.936Z,19.60
2018-02-02T05:56:17.837Z,19.80
2018-02-02T05:58:46.768Z,13.90
2018-02-02T06:01:14.689Z,17.30
2018-02-02T06:03:42.622Z,21.30
2018-02-02T06:06:10.676Z,19.30
2018-02-02T06:08:38.582Z,15.47
2018-02-02T06:11:06.469Z,24.60
2018-02-02T06:13:34.504Z,17.73
2018-02-02T06:16:02.440Z,18.27
2018-02-02T06:18:31.063Z,17.07
2018-02-02T06:20:59.084Z,16.73
2018-02-02T06:23:27.732Z,16.33
2018-02-02T06:25:55.629Z,13.80
2018-02-02T06:28:23.672Z,15.40
2018-02-02T06:30:51.557Z,12.80
2018-02-02T06:33:19.464Z,15.93
2018-02-02T06:35:47.578Z,12.87
2018-02-02T06:38:18.244Z,13.10
2018-02-02T06:40:46.283Z,14.63
2018-02-02T06:43:17.161Z,11.33
2018-02-02T06:45:45.102Z,15.20
2018-02-02T06:48:16.044Z,14.83
2018-02-02T06:50:44.108Z,12.23
2018-02-02T06:53:11.994Z,11.90
2018-02-02T06:55:39.902Z,9.23
2018-02-02T06:58:08.084Z,10.87
2018-02-02T07:00:37.888Z,18.40
2018-02-02T07:03:12.678Z,16.00
2018-02-02T07:05:41.019Z,14.83
2018-02-02T07:08:08.943Z,15.13
2018-02-02T07:10:40.727Z,15.27
2018-02-02T07:13:09.784Z,14.17
2018-02-02T07:15:39.665Z,11.37
2018-02-02T07:18:07.950Z,13.70
2018-02-02T07:20:35.868Z,18.10
2018-02-02T07:23:04.938Z,20.60
2018-02-02T07:25:33.012Z,12.23
2018-02-02T07:28:04.594Z,12.50
2018-02-02T07:30:32.660Z,12.30
2018-02-02T07:33:01.821Z,17.30
2018-02-02T07:35:30.594Z,15.70
2018-02-02T07:37:58.512Z,15.87
2018-02-02T07:40:27.308Z,15.27
2018-02-02T07:42:56.858Z,18.27
2018-02-02T07:45:24.854Z,15.30
2018-02-02T07:47:52.895Z,12.17
2018-02-02T07:50:20.956Z,14.30
2018-02-02T07:52:48.888Z,11.23
2018-02-02T07:55:16.930Z,10.23
2018-02-02T07:57:44.837Z,14.13
2018-02-02T08:00:12.970Z,9.77
2018-02-02T08:02:41.248Z,16.93
2018-02-02T08:05:09.152Z,11.43
2018-02-02T08:07:37.149Z,14.23
2018-02-02T08:10:05.256Z,14.73
2018-02-02T08:12:33.161Z,12.00
2018-02-02T08:15:01.073Z,13.90
2018-02-02T08:17:29.170Z,12.50
2018-02-02T08:19:57.085Z,11.30
2018-02-02T08:22:25.745Z,11.70
2018-02-02T08:24:53.779Z,18.13
2018-02-02T08:27:21.768Z,13.67
2018-02-02T08:29:49.776Z,12.90
2018-02-02T08:32:17.808Z,16.80
2018-02-02T08:34:45.698Z,9.97
2018-02-02T08:37:13.622Z,12.53
2018-02-02T08:39:41.776Z,14.40
2018-02-02T08:42:10.423Z,12.67
2018-02-02T08:44:38.390Z,10.73
2018-02-02T08:47:06.528Z,10.77
2018-02-02T08:49:34.422Z,13.43
2018-02-02T08:52:02.318Z,8.80
2018-02-02T08:54:30.405Z,11.00
2018-02-02T08:56:58.408Z,16.50
2018-02-02T08:59:26.318Z,8.73
2018-02-02T09:02:00.062Z,8.60
2018-02-02T09:04:28.834Z,12.13
2018-02-02T09:06:56.830Z,10.67
2018-02-02T09:09:25.613Z,15.13
2018-02-02T09:11:54.253Z,11.90
2018-02-02T09:14:22.156Z,16.03
2018-02-02T09:16:50.285Z,12.53
2018-02-02T09:19:18.174Z,9.60
2018-02-02T09:21:53.679Z,15.33
2018-02-02T09:24:21.592Z,15.20
2018-02-02T09:26:49.762Z,9.47
2018-02-02T09:29:17.798Z,16.40
2018-02-02T09:31:45.689Z,14.17
2018-02-02T09:34:13.590Z,10.03
2018-02-02T09:36:41.718Z,14.60
2018-02-02T09:39:09.629Z,15.43
2018-02-02T09:41:37.532Z,14.60
2018-02-02T09:44:06.303Z,13.63
2018-02-02T09:46:34.283Z,16.57
2018-02-02T09:49:02.941Z,11.70
2018-02-02T09:51:30.982Z,11.10
2018-02-02T09:53:59.010Z,11.53
2018-02-02T09:56:28.597Z,10.10
2018-02-02T09:58:56.621Z,13.70
2018-02-02T10:01:24.525Z,15.93
2018-02-02T10:03:52.453Z,14.70
2018-02-02T10:06:20.609Z,14.57
2018-02-02T10:08:49.293Z,9.70
2018-02-02T10:11:17.930Z,10.40
2018-02-02T10:13:45.997Z,12.27
2018-02-02T10:16:13.905Z,11.43
2018-02-02T10:18:41.814Z,15.57
2018-02-02T10:21:09.830Z,17.13
2018-02-02T10:23:37.730Z,9.57
2018-02-02T10:26:06.372Z,23.03
2018-02-02T10:28:34.396Z,14.33
2018-02-02T10:31:03.022Z,15.80
2018-02-02T10:33:30.952Z,12.53
2018-02-02T10:35:58.973Z,15.00
2018-02-02T10:38:26.898Z,11.27
2018-02-02T10:40:55.554Z,10.60
2018-02-02T10:43:23.602Z,12.60
2018-02-02T10:45:51.541Z,22.70
2018-02-02T10:48:19.448Z,14.87
2018-02-02T10:50:47.480Z,26.63
2018-02-02T10:53:15.488Z,13.10
2018-02-02T10:55:43.371Z,14.73
2018-02-02T10:58:11.406Z,10.40
2018-02-02T11:00:45.051Z,11.60
2018-02-02T11:03:17.854Z,15.97
2018-02-02T11:05:46.482Z,18.13
2018-02-02T11:08:14.530Z,10.63
2018-02-02T11:10:42.584Z,17.20
2018-02-02T11:13:11.226Z,17.03
2018-02-02T11:15:39.124Z,13.47
2018-02-02T11:18:07.158Z,11.67
2018-02-02T11:20:35.052Z,14.60
2018-02-02T11:23:02.962Z,17.27
2018-02-02T11:25:31.733Z,17.03
2018-02-02T11:28:00.361Z,13.03
2018-02-02T11:30:28.258Z,13.60
2018-02-02T11:32:56.312Z,12.70
2018-02-02T11:35:24.386Z,15.30
2018-02-02T11:37:52.304Z,10.77
2018-02-02T11:40:21.071Z,14.27
2018-02-02T11:42:48.965Z,15.73
2018-02-02T11:45:17.600Z,13.53
2018-02-02T11:47:45.636Z,14.53
2018-02-02T11:50:14.292Z,14.23
2018-02-02T11:52:42.190Z,17.73
2018-02-02T11:55:10.982Z,18.00
2018-02-02T11:57:39.641Z,17.97
2018-02-02T12:00:08.320Z,13.27
2018-02-02T12:02:36.334Z,16.07
2018-02-02T12:05:04.248Z,13.67
2018-02-02T12:07:32.312Z,21.37
2018-02-02T12:10:00.500Z,18.03
2018-02-02T12:12:28.538Z,13.20
2018-02-02T12:14:56.582Z,13.37
2018-02-02T12:17:25.513Z,12.83
2018-02-02T12:19:53.544Z,17.47
2018-02-02T12:22:27.999Z,17.20
2018-02-02T12:25:16.663Z,17.33
2018-02-02T12:27:50.158Z,16.20
2018-02-02T12:30:23.752Z,18.10
2018-02-02T12:32:51.800Z,16.07
2018-02-02T12:35:22.384Z,17.87
2018-02-02T12:37:50.424Z,16.90
2018-02-02T12:40:18.576Z,13.80
2018-02-02T12:42:47.217Z,12.73
2018-02-02T12:45:15.133Z,20.77
2018-02-02T12:47:49.721Z,15.70
2018-02-02T12:50:17.845Z,18.90
2018-02-02T12:52:45.746Z,15.70
2018-02-02T12:55:13.886Z,16.07
2018-02-02T12:57:41.804Z,14.80
2018-02-02T13:00:09.720Z,12.23
2018-02-02T13:02:38.498Z,15.77
2018-02-02T13:05:07.122Z,10.50
2018-02-02T13:07:35.019Z,12.10
2018-02-02T13:10:03.222Z,11.83
2018-02-02T13:12:31.854Z,10.60
2018-02-02T13:14:59.829Z,16.23
2018-02-02T13:17:27.846Z,14.80
2018-02-02T13:19:56.509Z,15.60
2018-02-02T13:22:24.416Z,15.27
2018-02-02T13:24:53.188Z,16.17
2018-02-02T13:27:21.069Z,15.97
2018-02-02T13:29:49.838Z,11.80
2018-02-02T13:32:17.876Z,14.33
2018-02-02T13:34:45.768Z,13.63
2018-02-02T13:37:13.726Z,15.20
2018-02-02T13:39:41.768Z,19.30
2018-02-02T13:42:09.669Z,15.50
2018-02-02T13:44:37.546Z,14.47
2018-02-02T13:47:05.595Z,15.07
2018-02-02T13:49:33.538Z,12.40
2018-02-02T13:52:01.426Z,11.20
2018-02-02T13:54:29.551Z,16.03
2018-02-02T13:56:57.456Z,14.70
2018-02-02T13:59:25.350Z,16.03
2018-02-02T14:01:53.401Z,12.03
2018-02-02T14:04:21.286Z,13.33
2018-02-02T14:06:49.175Z,13.90
2018-02-02T14:09:17.219Z,20.50
2018-02-02T14:11:45.260Z,13.40
2018-02-02T14:14:13.894Z,19.60
2018-02-02T14:16:41.910Z,18.73
2018-02-02T14:19:10.556Z,13.30
2018-02-02T14:21:38.456Z,16.80
2018-02-02T14:24:06.488Z,12.87
2018-02-02T14:26:34.396Z,16.93
2018-02-02T14:29:02.274Z,16.83
2018-02-02T14:31:31.054Z,12.43
2018-02-02T14:33:59.042Z,18.37
2018-02-02T14:36:27.686Z,21.13
2018-02-02T14:38:55.708Z,13.23
2018-02-02T14:41:24.353Z,15.43
2018-02-02T14:43:52.261Z,16.20
2018-02-02T14:46:21.044Z,16.03
2018-02-02T14:48:49.708Z,19.60
2018-02-02T14:51:17.605Z,14.53
2018-02-02T14:53:46.366Z,22.43
2018-02-02T14:56:14.278Z,15.20
2018-02-02T14:58:42.150Z,15.47
2018-02-02T15:01:10.183Z,10.33
2018-02-02T15:03:38.844Z,13.10
2018-02-02T15:06:06.758Z,12.83
2018-02-02T15:08:35.542Z,12.67
2018-02-02T15:11:04.208Z,15.77
2018-02-02T15:13:32.273Z,16.07
2018-02-02T15:16:00.309Z,16.27
2018-02-02T15:18:28.232Z,11.60
2018-02-02T15:20:56.904Z,11.17
2018-02-02T15:23:39.658Z,13.97
2018-02-02T15:26:07.568Z,17.37
2018-02-02T15:28:35.470Z,24.83
2018-02-02T15:31:04.261Z,16.00
2018-02-02T15:33:32.912Z,15.40
2018-02-02T15:36:00.801Z,19.23
2018-02-02T15:38:28.822Z,13.87
2018-02-02T15:40:56.736Z,10.83
2018-02-02T15:43:24.630Z,18.83
2018-02-02T15:45:53.421Z,18.10
2018-02-02T15:48:22.046Z,17.30
2018-02-02T15:50:49.957Z,19.93
2018-02-02T15:53:17.995Z,14.93
2018-02-02T15:55:45.878Z,16.67
2018-02-02T15:58:13.763Z,15.33
2018-02-02T16:00:41.802Z,17.93
2018-02-02T16:03:09.706Z,13.93
2018-02-02T16:05:37.594Z,16.97
2018-02-02T16:08:06.384Z,18.73
2018-02-02T16:10:35.021Z,22.00
2018-02-02T16:13:02.936Z,23.50
2018-02-02T16:15:31.869Z,18.00
2018-02-02T16:17:59.770Z,15.03
2018-02-02T16:20:27.681Z,18.33
2018-02-02T16:22:56.445Z,17.60
2018-02-02T16:25:24.401Z,20.37
2018-02-02T16:27:52.298Z,18.60
2018-02-02T16:30:21.088Z,17.10
2018-02-02T16:32:49.749Z,12.00
2018-02-02T16:35:17.671Z,15.80
2018-02-02T16:37:45.830Z,14.57
2018-02-02T16:40:14.608Z,16.07
2018-02-02T16:42:43.241Z,21.33
2018-02-02T16:45:11.415Z,15.27
2018-02-02T16:47:39.330Z,13.43
2018-02-02T16:50:07.380Z,17.10
2018-02-02T16:52:35.406Z,17.40
2018-02-02T16:55:03.373Z,18.00
2018-02-02T16:57:31.393Z,16.40
2018-02-02T16:59:59.547Z,19.83
2018-02-02T17:02:27.433Z,15.00
2018-02-02T17:04:55.464Z,22.90
2018-02-02T17:07:23.621Z,19.33
2018-02-02T17:09:52.400Z,14.27
2018-02-02T17:12:21.157Z,14.43
2018-02-02T17:14:49.178Z,18.40
2018-02-02T17:17:17.960Z,22.50
2018-02-02T17:19:46.590Z,14.90
2018-02-02T17:22:14.606Z,19.30
2018-02-02T17:24:43.272Z,15.90
2018-02-02T17:27:11.180Z,14.87
2018-02-02T17:29:39.956Z,18.70
2018-02-02T17:32:08.586Z,18.30
2018-02-02T17:34:36.483Z,15.50
2018-02-02T17:37:04.521Z,16.60
2018-02-02T17:39:32.489Z,15.20
2018-02-02T17:42:00.401Z,13.93
2018-02-02T17:44:28.418Z,18.27
2018-02-02T17:46:56.298Z,18.60
2018-02-02T17:49:24.239Z,18.43
2018-02-02T17:51:53.018Z,14.87
2018-02-02T17:54:21.633Z,16.93
2018-02-02T17:56:49.742Z,16.87
2018-02-02T17:59:18.074Z,19.63
2018-02-02T18:02:02.216Z,13.60
2018-02-02T18:04:31.157Z,14.53
2018-02-02T18:06:59.508Z,14.80
2018-02-02T18:09:27.404Z,22.20
2018-02-02T18:11:55.452Z,13.30
2018-02-02T18:14:24.124Z,24.13
2018-02-02T18:16:52.928Z,18.43
2018-02-02T18:19:21.109Z,12.47
2018-02-02T18:21:49.168Z,18.03
2018-02-02T18:24:17.846Z,17.63
2018-02-02T18:26:45.983Z,18.20
2018-02-02T18:29:13.956Z,16.80
2018-02-02T18:31:42.893Z,18.20
2018-02-02T18:34:10.926Z,13.53
2018-02-02T18:36:40.291Z,14.40
2018-02-02T18:39:08.196Z,18.03
2018-02-02T18:41:36.094Z,13.70
2018-02-02T18:44:04.010Z,17.70
2018-02-02T18:46:31.973Z,18.73
2018-02-02T18:48:59.885Z,25.07
2018-02-02T18:51:28.548Z,20.53
2018-02-02T18:53:56.472Z,23.17
2018-02-02T18:56:24.493Z,26.40
2018-02-02T18:58:53.427Z,20.10
2018-02-02T19:01:21.319Z,19.67
2018-02-02T19:03:49.216Z,17.17
2018-02-02T19:06:17.184Z,16.40
2018-02-02T19:08:45.525Z,17.70
2018-02-02T19:11:13.448Z,19.50
2018-02-02T19:26:47.924Z,21.30
2018-02-02T19:29:16.619Z,25.77
2018-02-02T19:31:44.493Z,17.23
2018-02-02T19:34:12.660Z,23.13
2018-02-02T19:36:40.703Z,27.37
2018-02-02T19:39:09.453Z,17.10
2018-02-02T19:41:37.503Z,21.13
2018-02-02T19:44:05.396Z,21.20
2018-02-02T19:46:33.556Z,19.07
2018-02-02T19:49:01.600Z,20.80
2018-02-02T19:51:29.496Z,19.77
2018-02-02T19:53:57.408Z,22.90
2018-02-02T19:56:26.314Z,19.37
2018-02-02T19:58:54.352Z,26.80
2018-02-02T20:01:22.249Z,19.53
2018-02-02T20:03:51.002Z,18.87
2018-02-02T20:06:19.024Z,21.10
2018-02-02T20:08:46.992Z,24.50
2018-02-02T20:11:15.040Z,22.27
2018-02-02T20:13:43.684Z,21.30
2018-02-02T20:16:11.588Z,28.73
2018-02-02T20:18:40.376Z,21.67
2018-02-02T20:21:08.292Z,18.77
2018-02-02T20:23:36.189Z,17.17
2018-02-02T20:26:04.218Z,19.60
2018-02-02T20:28:32.245Z,22.07
2018-02-02T20:31:00.133Z,24.53
2018-02-02T20:33:29.010Z,28.20
2018-02-02T20:35:56.915Z,16.60
2018-02-02T20:38:24.824Z,22.13
2018-02-02T20:40:52.864Z,22.90
2018-02-02T20:43:20.746Z,23.23
2018-02-02T20:45:48.856Z,22.40
2018-02-02T20:48:16.889Z,21.07
2018-02-02T20:50:44.869Z,24.97
2018-02-02T20:53:12.766Z,21.10
2018-02-02T20:55:40.804Z,24.10
2018-02-02T20:58:09.485Z,21.80
2018-02-02T21:00:37.408Z,27.37
2018-02-02T21:03:05.496Z,18.10
2018-02-02T21:05:34.144Z,17.80
2018-02-02T21:08:02.085Z,20.10
2018-02-02T21:10:30.110Z,27.80
2018-02-02T21:12:57.982Z,23.80
2018-02-02T21:15:26.635Z,23.90
2018-02-02T21:17:54.662Z,20.03
2018-02-02T21:20:22.567Z,18.37
2018-02-02T21:22:50.457Z,15.17
2018-02-02T21:25:18.477Z,25.73
2018-02-02T21:27:46.473Z,17.20
2018-02-02T21:30:14.550Z,20.33
2018-02-02T21:32:42.572Z,26.87
2018-02-02T21:35:11.201Z,19.80
2018-02-02T21:37:39.172Z,23.47
2018-02-02T21:40:07.219Z,23.50
2018-02-02T21:42:35.898Z,24.77
2018-02-02T21:45:04.548Z,30.00
2018-02-02T22:00:38.768Z,29.13
2018-02-02T22:03:06.664Z,22.37
2018-02-02T22:05:35.300Z,18.63
2018-02-02T22:08:03.503Z,23.13
2018-02-02T22:10:31.411Z,22.03
2018-02-02T22:12:59.324Z,19.50
2018-02-02T22:15:27.454Z,25.90
2018-02-02T22:17:55.416Z,24.53
2018-02-02T22:20:23.324Z,26.77
2018-02-02T22:22:51.534Z,23.90
2018-02-02T22:25:20.414Z,22.10
2018-02-02T22:27:48.421Z,21.60
2018-02-02T22:30:16.593Z,27.27
2018-02-02T22:32:45.221Z,21.70
2018-02-02T22:35:13.118Z,20.37
2018-02-02T22:37:41.121Z,26.63
2018-02-02T22:40:09.768Z,26.50
2018-02-02T22:42:37.661Z,27.27
2018-02-02T22:45:06.482Z,25.93
2018-02-02T22:47:34.391Z,30.73
2018-02-02T22:50:02.305Z,22.90
2018-02-02T22:52:30.326Z,27.30
2018-02-02T22:54:58.239Z,26.40
2018-02-02T22:57:26.951Z,24.90
2018-02-02T22:59:54.969Z,25.87
2018-02-02T23:02:22.865Z,21.60
2018-02-02T23:04:51.494Z,24.47
2018-02-02T23:07:19.541Z,29.20
2018-02-02T23:09:47.444Z,28.00
2018-02-02T23:12:15.342Z,23.00
2018-02-02T23:14:43.356Z,20.47
2018-02-02T23:17:11.306Z,31.30
2018-02-02T23:19:39.937Z,23.33
2018-02-02T23:22:07.970Z,28.63
2018-02-02T23:24:35.866Z,29.10
2018-02-02T23:27:03.825Z,23.07
2018-02-02T23:29:31.846Z,25.97
2018-02-02T23:31:59.877Z,22.87
2018-02-02T23:34:27.789Z,22.60
2018-02-02T23:36:56.040Z,24.67
2018-02-02T23:39:23.918Z,26.83
2018-02-02T23:41:51.855Z,23.40
2018-02-02T23:44:19.878Z,21.33
2018-02-02T23:46:47.876Z,24.23
2018-02-02T23:49:16.490Z,29.17
2018-02-02T23:51:44.613Z,26.93
2018-02-02T23:54:12.502Z,26.23
2018-02-02T23:56:41.302Z,25.37
2018-02-02T23:59:09.314Z,26.33
